sensor_id;sensor_type;location;lat;lon;timestamp;temperature;humidity
15564;DHT22;7883;52.554;13.364;2023-04-01T00:01:54;11.40;99.90
15564;DHT22;7883;52.554;13.364;2023-04-01T00:04:22;11.40;99.90
15564;DHT22;7883;52.554;13.364;2023-04-01T00:06:50;11.50;99.90
15564;DHT22;7883;52.554;13.364;2023-04-01T00:09:18;11.40;99.90
15564;DHT22;7883;52.554;13.364;2023-04-01T00:11:45;11.30;99.90
15564;DHT22;7883;52.554;13.364;2023-04-01T00:14:12;11.30;99.90
15564;DHT22;7883;52.554;13.364;2023-04-01T00:16:39;11.30;99.90
15564;DHT22;7883;52.554;13.364;2023-04-01T00:19:07;11.40;99.90
15564;DHT22;7883;52.554;13.364;2023-04-01T00:21:34;11.40;99.90
15564;DHT22;7883;52.554;13.364;2023-04-01T00:24:03;11.40;99.90
15564;DHT22;7883;52.554;13.364;2023-04-01T00:26:32;11.40;99.90
15564;DHT22;7883;52.554;13.364;2023-04-01T00:28:59;11.40;99.90
15564;DHT22;7883;52.554;13.364;2023-04-01T00:31:27;11.40;99.90
15564;DHT22;7883;52.554;13.364;2023-04-01T00:33:54;11.50;99.90
15564;DHT22;7883;52.554;13.364;2023-04-01T00:36:22;11.40;99.90
15564;DHT22;7883;52.554;13.364;2023-04-01T00:38:51;11.30;99.90
15564;DHT22;7883;52.554;13.364;2023-04-01T00:41:21;11.40;99.90
15564;DHT22;7883;52.554;13.364;2023-04-01T00:43:52;11.40;99.90
15564;DHT22;7883;52.554;13.364;2023-04-01T00:46:20;11.40;99.90
15564;DHT22;7883;52.554;13.364;2023-04-01T00:48:49;11.50;99.90
15564;DHT22;7883;52.554;13.364;2023-04-01T00:51:21;11.50;99.90
15564;DHT22;7883;52.554;13.364;2023-04-01T00:53:52;11.50;99.90
15564;DHT22;7883;52.554;13.364;2023-04-01T00:56:24;11.50;99.90
15564;DHT22;7883;52.554;13.364;2023-04-01T00:58:56;11.40;99.90
15564;DHT22;7883;52.554;13.364;2023-04-01T01:01:25;11.40;99.90
15564;DHT22;7883;52.554;13.364;2023-04-01T01:03:55;11.30;99.90
15564;DHT22;7883;52.554;13.364;2023-04-01T01:06:30;11.30;99.90
15564;DHT22;7883;52.554;13.364;2023-04-01T01:09:13;11.40;99.90
15564;DHT22;7883;52.554;13.364;2023-04-01T01:11:51;11.40;99.90
15564;DHT22;7883;52.554;13.364;2023-04-01T01:14:39;11.40;99.90
15564;DHT22;7883;52.554;13.364;2023-04-01T01:17:13;11.40;99.90
15564;DHT22;7883;52.554;13.364;2023-04-01T01:23:15;11.30;99.90
15564;DHT22;7883;52.554;13.364;2023-04-01T01:25:54;11.30;99.90
15564;DHT22;7883;52.554;13.364;2023-04-01T01:28:35;11.30;99.90
15564;DHT22;7883;52.554;13.364;2023-04-01T01:31:10;11.30;99.90
15564;DHT22;7883;52.554;13.364;2023-04-01T01:33:58;11.30;99.90
15564;DHT22;7883;52.554;13.364;2023-04-01T01:36:33;11.30;99.90
15564;DHT22;7883;52.554;13.364;2023-04-01T01:39:06;11.40;99.90
15564;DHT22;7883;52.554;13.364;2023-04-01T01:41:37;11.40;99.90
15564;DHT22;7883;52.554;13.364;2023-04-01T01:44:11;11.40;99.90
15564;DHT22;7883;52.554;13.364;2023-04-01T01:46:41;11.40;99.90
15564;DHT22;7883;52.554;13.364;2023-04-01T01:49:10;11.40;99.90
15564;DHT22;7883;52.554;13.364;2023-04-01T01:51:41;11.40;99.90
15564;DHT22;7883;52.554;13.364;2023-04-01T01:54:12;11.30;99.90
15564;DHT22;7883;52.554;13.364;2023-04-01T01:56:41;11.30;99.90
15564;DHT22;7883;52.554;13.364;2023-04-01T01:59:11;11.20;99.90
15564;DHT22;7883;52.554;13.364;2023-04-01T02:01:43;11.20;99.90
15564;DHT22;7883;52.554;13.364;2023-04-01T02:04:14;11.20;99.90
15564;DHT22;7883;52.554;13.364;2023-04-01T02:06:47;11.20;99.90
15564;DHT22;7883;52.554;13.364;2023-04-01T02:09:19;11.20;99.90
15564;DHT22;7883;52.554;13.364;2023-04-01T02:11:51;11.20;99.90
15564;DHT22;7883;52.554;13.364;2023-04-01T02:14:21;11.10;99.90
15564;DHT22;7883;52.554;13.364;2023-04-01T02:16:53;11.10;99.90
15564;DHT22;7883;52.554;13.364;2023-04-01T02:19:23;11.10;99.90
15564;DHT22;7883;52.554;13.364;2023-04-01T02:21:56;11.10;99.90
15564;DHT22;7883;52.554;13.364;2023-04-01T02:24:25;11.10;99.90
15564;DHT22;7883;52.554;13.364;2023-04-01T02:26:53;11.10;99.90
15564;DHT22;7883;52.554;13.364;2023-04-01T02:29:23;11.10;99.90
15564;DHT22;7883;52.554;13.364;2023-04-01T02:31:52;11.10;99.90
15564;DHT22;7883;52.554;13.364;2023-04-01T02:34:20;11.00;99.90
15564;DHT22;7883;52.554;13.364;2023-04-01T02:36:48;11.00;99.90
15564;DHT22;7883;52.554;13.364;2023-04-01T02:39:18;11.10;99.90
15564;DHT22;7883;52.554;13.364;2023-04-01T02:41:46;11.10;99.90
15564;DHT22;7883;52.554;13.364;2023-04-01T02:44:14;11.10;99.90
15564;DHT22;7883;52.554;13.364;2023-04-01T02:46:42;11.10;99.90
15564;DHT22;7883;52.554;13.364;2023-04-01T02:49:11;11.10;99.90
15564;DHT22;7883;52.554;13.364;2023-04-01T02:51:38;11.10;99.90
15564;DHT22;7883;52.554;13.364;2023-04-01T02:54:05;11.10;99.90
15564;DHT22;7883;52.554;13.364;2023-04-01T02:56:34;11.10;99.90
15564;DHT22;7883;52.554;13.364;2023-04-01T02:59:01;11.10;99.90
15564;DHT22;7883;52.554;13.364;2023-04-01T03:01:28;11.10;99.90
15564;DHT22;7883;52.554;13.364;2023-04-01T03:03:55;11.10;99.90
15564;DHT22;7883;52.554;13.364;2023-04-01T03:06:22;11.10;99.90
15564;DHT22;7883;52.554;13.364;2023-04-01T03:08:49;11.00;99.90
15564;DHT22;7883;52.554;13.364;2023-04-01T03:11:17;11.00;99.90
15564;DHT22;7883;52.554;13.364;2023-04-01T03:13:46;11.10;99.90
15564;DHT22;7883;52.554;13.364;2023-04-01T03:16:14;11.10;99.90
15564;DHT22;7883;52.554;13.364;2023-04-01T03:18:42;11.10;99.90
15564;DHT22;7883;52.554;13.364;2023-04-01T03:21:14;11.10;99.90
15564;DHT22;7883;52.554;13.364;2023-04-01T03:23:42;11.10;99.90
15564;DHT22;7883;52.554;13.364;2023-04-01T03:26:09;11.20;99.90
15564;DHT22;7883;52.554;13.364;2023-04-01T03:28:36;11.20;99.90
15564;DHT22;7883;52.554;13.364;2023-04-01T03:31:05;11.20;99.90
15564;DHT22;7883;52.554;13.364;2023-04-01T03:33:33;11.20;99.90
15564;DHT22;7883;52.554;13.364;2023-04-01T03:36:00;11.20;99.90
15564;DHT22;7883;52.554;13.364;2023-04-01T03:38:29;11.20;99.90
15564;DHT22;7883;52.554;13.364;2023-04-01T03:40:56;11.10;99.90
15564;DHT22;7883;52.554;13.364;2023-04-01T03:43:23;11.10;99.90
15564;DHT22;7883;52.554;13.364;2023-04-01T03:45:51;11.20;99.90
15564;DHT22;7883;52.554;13.364;2023-04-01T03:48:21;11.20;99.90
15564;DHT22;7883;52.554;13.364;2023-04-01T03:50:48;11.20;99.90
15564;DHT22;7883;52.554;13.364;2023-04-01T03:53:15;11.20;99.90
15564;DHT22;7883;52.554;13.364;2023-04-01T03:55:43;11.20;99.90
15564;DHT22;7883;52.554;13.364;2023-04-01T03:58:10;11.30;99.90
15564;DHT22;7883;52.554;13.364;2023-04-01T04:00:37;11.30;99.90
15564;DHT22;7883;52.554;13.364;2023-04-01T04:03:06;11.20;99.90
15564;DHT22;7883;52.554;13.364;2023-04-01T04:05:34;11.30;99.90
15564;DHT22;7883;52.554;13.364;2023-04-01T04:08:01;11.30;99.90
15564;DHT22;7883;52.554;13.364;2023-04-01T04:10:29;11.20;99.90
15564;DHT22;7883;52.554;13.364;2023-04-01T04:12:56;11.10;99.90
15564;DHT22;7883;52.554;13.364;2023-04-01T04:15:23;11.10;99.90
15564;DHT22;7883;52.554;13.364;2023-04-01T04:17:53;11.10;99.90
15564;DHT22;7883;52.554;13.364;2023-04-01T04:20:20;11.10;99.90
15564;DHT22;7883;52.554;13.364;2023-04-01T04:22:48;11.10;99.90
15564;DHT22;7883;52.554;13.364;2023-04-01T04:25:15;11.10;99.90
15564;DHT22;7883;52.554;13.364;2023-04-01T04:27:42;11.00;99.90
15564;DHT22;7883;52.554;13.364;2023-04-01T04:30:10;11.00;99.90
15564;DHT22;7883;52.554;13.364;2023-04-01T04:32:37;11.10;99.90
15564;DHT22;7883;52.554;13.364;2023-04-01T04:35:04;11.10;99.90
15564;DHT22;7883;52.554;13.364;2023-04-01T04:37:32;11.10;99.90
15564;DHT22;7883;52.554;13.364;2023-04-01T04:40:00;11.00;99.90
15564;DHT22;7883;52.554;13.364;2023-04-01T04:42:27;11.00;99.90
15564;DHT22;7883;52.554;13.364;2023-04-01T04:44:57;11.10;99.90
15564;DHT22;7883;52.554;13.364;2023-04-01T04:47:24;11.00;99.90
15564;DHT22;7883;52.554;13.364;2023-04-01T04:49:51;11.00;99.90
15564;DHT22;7883;52.554;13.364;2023-04-01T04:52:19;11.10;99.90
15564;DHT22;7883;52.554;13.364;2023-04-01T04:54:47;11.10;99.90
15564;DHT22;7883;52.554;13.364;2023-04-01T04:57:15;11.10;99.90
15564;DHT22;7883;52.554;13.364;2023-04-01T04:59:42;11.20;99.90
15564;DHT22;7883;52.554;13.364;2023-04-01T05:02:10;11.10;99.90
15564;DHT22;7883;52.554;13.364;2023-04-01T05:04:39;11.20;99.90
15564;DHT22;7883;52.554;13.364;2023-04-01T05:07:06;11.20;99.90
15564;DHT22;7883;52.554;13.364;2023-04-01T05:09:33;11.20;99.90
15564;DHT22;7883;52.554;13.364;2023-04-01T05:12:00;11.20;99.90
15564;DHT22;7883;52.554;13.364;2023-04-01T05:14:28;11.00;99.90
15564;DHT22;7883;52.554;13.364;2023-04-01T05:16:55;11.10;99.90
15564;DHT22;7883;52.554;13.364;2023-04-01T05:19:22;11.10;99.90
15564;DHT22;7883;52.554;13.364;2023-04-01T05:21:49;11.20;99.90
15564;DHT22;7883;52.554;13.364;2023-04-01T05:24:16;11.20;99.90
15564;DHT22;7883;52.554;13.364;2023-04-01T05:26:43;11.20;99.90
15564;DHT22;7883;52.554;13.364;2023-04-01T05:29:10;11.20;99.90
15564;DHT22;7883;52.554;13.364;2023-04-01T05:31:38;11.10;99.90
15564;DHT22;7883;52.554;13.364;2023-04-01T05:34:05;11.10;99.90
15564;DHT22;7883;52.554;13.364;2023-04-01T05:36:32;11.10;99.90
15564;DHT22;7883;52.554;13.364;2023-04-01T05:38:59;11.10;99.90
15564;DHT22;7883;52.554;13.364;2023-04-01T05:41:26;11.10;99.90
15564;DHT22;7883;52.554;13.364;2023-04-01T05:43:55;11.10;99.90
15564;DHT22;7883;52.554;13.364;2023-04-01T05:46:22;11.10;99.90
15564;DHT22;7883;52.554;13.364;2023-04-01T05:48:50;11.10;99.90
15564;DHT22;7883;52.554;13.364;2023-04-01T05:51:17;11.20;99.90
15564;DHT22;7883;52.554;13.364;2023-04-01T05:53:44;11.20;99.90
15564;DHT22;7883;52.554;13.364;2023-04-01T05:56:13;11.20;99.90
15564;DHT22;7883;52.554;13.364;2023-04-01T05:58:41;11.20;99.90
15564;DHT22;7883;52.554;13.364;2023-04-01T06:01:09;11.20;99.90
15564;DHT22;7883;52.554;13.364;2023-04-01T06:03:37;11.20;99.90
15564;DHT22;7883;52.554;13.364;2023-04-01T06:06:13;11.10;99.90
15564;DHT22;7883;52.554;13.364;2023-04-01T06:08:41;11.20;99.90
15564;DHT22;7883;52.554;13.364;2023-04-01T06:11:19;11.20;99.90
15564;DHT22;7883;52.554;13.364;2023-04-01T06:14:07;11.20;99.90
15564;DHT22;7883;52.554;13.364;2023-04-01T06:16:46;11.20;99.90
15564;DHT22;7883;52.554;13.364;2023-04-01T06:19:27;11.20;99.90
15564;DHT22;7883;52.554;13.364;2023-04-01T06:22:27;11.30;99.90
15564;DHT22;7883;52.554;13.364;2023-04-01T06:28:31;11.30;99.90
15564;DHT22;7883;52.554;13.364;2023-04-01T06:31:04;11.20;99.90
15564;DHT22;7883;52.554;13.364;2023-04-01T06:33:46;11.30;99.90
15564;DHT22;7883;52.554;13.364;2023-04-01T06:36:31;11.30;99.90
15564;DHT22;7883;52.554;13.364;2023-04-01T06:42:15;11.30;99.90
15564;DHT22;7883;52.554;13.364;2023-04-01T06:44:56;11.30;99.90
15564;DHT22;7883;52.554;13.364;2023-04-01T06:47:36;11.20;99.90
15564;DHT22;7883;52.554;13.364;2023-04-01T06:50:11;11.20;99.90
15564;DHT22;7883;52.554;13.364;2023-04-01T06:52:45;11.20;99.90
15564;DHT22;7883;52.554;13.364;2023-04-01T06:55:26;11.20;99.90
15564;DHT22;7883;52.554;13.364;2023-04-01T06:57:55;11.20;99.90
15564;DHT22;7883;52.554;13.364;2023-04-01T07:00:29;11.20;99.90
15564;DHT22;7883;52.554;13.364;2023-04-01T07:03:09;11.20;99.90
15564;DHT22;7883;52.554;13.364;2023-04-01T07:05:41;11.20;99.90
15564;DHT22;7883;52.554;13.364;2023-04-01T07:08:12;11.20;99.90
15564;DHT22;7883;52.554;13.364;2023-04-01T07:10:45;11.20;99.90
15564;DHT22;7883;52.554;13.364;2023-04-01T07:13:18;11.20;99.90
15564;DHT22;7883;52.554;13.364;2023-04-01T07:18:37;11.20;99.90
15564;DHT22;7883;52.554;13.364;2023-04-01T07:21:17;11.20;99.90
15564;DHT22;7883;52.554;13.364;2023-04-01T07:23:47;11.30;99.90
15564;DHT22;7883;52.554;13.364;2023-04-01T07:26:20;11.30;99.90
15564;DHT22;7883;52.554;13.364;2023-04-01T07:28:48;11.40;99.90
15564;DHT22;7883;52.554;13.364;2023-04-01T07:31:25;11.30;99.90
15564;DHT22;7883;52.554;13.364;2023-04-01T07:34:03;11.30;99.90
15564;DHT22;7883;52.554;13.364;2023-04-01T07:37:02;11.30;99.90
15564;DHT22;7883;52.554;13.364;2023-04-01T07:39:37;11.40;99.90
15564;DHT22;7883;52.554;13.364;2023-04-01T07:42:16;11.50;99.90
15564;DHT22;7883;52.554;13.364;2023-04-01T07:44:54;11.50;99.90
15564;DHT22;7883;52.554;13.364;2023-04-01T07:47:34;11.60;99.90
15564;DHT22;7883;52.554;13.364;2023-04-01T07:50:13;11.60;99.90
15564;DHT22;7883;52.554;13.364;2023-04-01T07:52:51;11.60;99.90
15564;DHT22;7883;52.554;13.364;2023-04-01T07:55:24;11.70;99.90
15564;DHT22;7883;52.554;13.364;2023-04-01T07:58:01;11.70;99.90
15564;DHT22;7883;52.554;13.364;2023-04-01T08:00:38;11.70;99.90
15564;DHT22;7883;52.554;13.364;2023-04-01T08:03:21;11.70;99.90
15564;DHT22;7883;52.554;13.364;2023-04-01T08:05:56;11.60;99.90
15564;DHT22;7883;52.554;13.364;2023-04-01T08:08:32;11.60;99.90
15564;DHT22;7883;52.554;13.364;2023-04-01T08:11:10;11.60;99.90
15564;DHT22;7883;52.554;13.364;2023-04-01T08:13:45;11.50;99.90
15564;DHT22;7883;52.554;13.364;2023-04-01T08:16:20;11.40;99.90
15564;DHT22;7883;52.554;13.364;2023-04-01T08:18:57;11.20;99.90
15564;DHT22;7883;52.554;13.364;2023-04-01T08:21:30;11.10;99.90
15564;DHT22;7883;52.554;13.364;2023-04-01T08:24:11;11.10;99.90
15564;DHT22;7883;52.554;13.364;2023-04-01T08:26:46;11.00;99.90
15564;DHT22;7883;52.554;13.364;2023-04-01T08:29:21;11.00;99.90
15564;DHT22;7883;52.554;13.364;2023-04-01T08:31:54;11.00;99.90
15564;DHT22;7883;52.554;13.364;2023-04-01T08:34:25;10.90;99.90
15564;DHT22;7883;52.554;13.364;2023-04-01T08:37:01;10.70;99.90
15564;DHT22;7883;52.554;13.364;2023-04-01T08:39:32;10.80;99.90
15564;DHT22;7883;52.554;13.364;2023-04-01T08:42:28;10.80;99.90
15564;DHT22;7883;52.554;13.364;2023-04-01T08:45:16;10.70;99.90
15564;DHT22;7883;52.554;13.364;2023-04-01T08:48:08;10.80;99.90
15564;DHT22;7883;52.554;13.364;2023-04-01T08:54:16;10.40;99.90
15564;DHT22;7883;52.554;13.364;2023-04-01T08:56:58;10.50;99.90
15564;DHT22;7883;52.554;13.364;2023-04-01T08:59:57;10.50;99.90
15564;DHT22;7883;52.554;13.364;2023-04-01T09:06:43;10.70;99.90
15564;DHT22;7883;52.554;13.364;2023-04-01T09:09:49;10.70;99.90
15564;DHT22;7883;52.554;13.364;2023-04-01T09:12:52;10.70;99.90
15564;DHT22;7883;52.554;13.364;2023-04-01T09:15:50;10.90;99.90
15564;DHT22;7883;52.554;13.364;2023-04-01T09:24:55;11.00;99.90
15564;DHT22;7883;52.554;13.364;2023-04-01T09:27:29;11.10;99.90
15564;DHT22;7883;52.554;13.364;2023-04-01T09:30:31;10.90;99.90
15564;DHT22;7883;52.554;13.364;2023-04-01T09:38:54;11.30;99.90
15564;DHT22;7883;52.554;13.364;2023-04-01T09:41:35;11.30;99.90
15564;DHT22;7883;52.554;13.364;2023-04-01T09:44:11;11.30;99.90
15564;DHT22;7883;52.554;13.364;2023-04-01T09:46:55;11.10;99.90
15564;DHT22;7883;52.554;13.364;2023-04-01T09:49:57;11.00;99.90
15564;DHT22;7883;52.554;13.364;2023-04-01T10:11:19;10.90;99.90
15564;DHT22;7883;52.554;13.364;2023-04-01T10:14:22;10.90;99.90
15564;DHT22;7883;52.554;13.364;2023-04-01T10:17:22;10.80;99.90
15564;DHT22;7883;52.554;13.364;2023-04-01T10:20:13;10.90;99.90
15564;DHT22;7883;52.554;13.364;2023-04-01T10:26:20;10.80;99.90
15564;DHT22;7883;52.554;13.364;2023-04-01T10:29:19;11.00;99.90
15564;DHT22;7883;52.554;13.364;2023-04-01T10:32:11;11.10;99.90
15564;DHT22;7883;52.554;13.364;2023-04-01T10:38:11;10.80;99.90
15564;DHT22;7883;52.554;13.364;2023-04-01T10:40:57;10.80;99.90
15564;DHT22;7883;52.554;13.364;2023-04-01T10:47:25;10.30;99.90
15564;DHT22;7883;52.554;13.364;2023-04-01T10:53:39;10.60;99.90
15564;DHT22;7883;52.554;13.364;2023-04-01T10:56:38;10.40;99.90
15564;DHT22;7883;52.554;13.364;2023-04-01T10:59:48;10.40;99.90
15564;DHT22;7883;52.554;13.364;2023-04-01T11:09:06;10.50;99.90
15564;DHT22;7883;52.554;13.364;2023-04-01T11:12:13;10.50;99.90
15564;DHT22;7883;52.554;13.364;2023-04-01T11:27:12;10.50;99.90
15564;DHT22;7883;52.554;13.364;2023-04-01T11:29:57;10.40;99.90
15564;DHT22;7883;52.554;13.364;2023-04-01T11:32:42;10.30;99.90
15564;DHT22;7883;52.554;13.364;2023-04-01T11:35:35;10.50;99.90
15564;DHT22;7883;52.554;13.364;2023-04-01T11:38:17;10.70;99.90
15564;DHT22;7883;52.554;13.364;2023-04-01T11:40:52;10.50;99.90
15564;DHT22;7883;52.554;13.364;2023-04-01T11:43:26;10.40;99.90
15564;DHT22;7883;52.554;13.364;2023-04-01T11:46:01;10.30;99.90
15564;DHT22;7883;52.554;13.364;2023-04-01T11:48:49;10.20;99.90
15564;DHT22;7883;52.554;13.364;2023-04-01T11:51:34;9.90;99.90
15564;DHT22;7883;52.554;13.364;2023-04-01T11:54:14;10.10;99.90
15564;DHT22;7883;52.554;13.364;2023-04-01T11:56:56;10.30;99.90
15564;DHT22;7883;52.554;13.364;2023-04-01T11:59:46;10.10;99.90
15564;DHT22;7883;52.554;13.364;2023-04-01T12:02:18;9.90;99.90
15564;DHT22;7883;52.554;13.364;2023-04-01T12:07:55;9.70;99.90
15564;DHT22;7883;52.554;13.364;2023-04-01T12:10:28;9.80;99.90
15564;DHT22;7883;52.554;13.364;2023-04-01T12:13:07;9.80;99.90
15564;DHT22;7883;52.554;13.364;2023-04-01T12:15:51;9.80;99.90
15564;DHT22;7883;52.554;13.364;2023-04-01T12:18:24;9.80;99.90
15564;DHT22;7883;52.554;13.364;2023-04-01T12:20:59;10.00;99.90
15564;DHT22;7883;52.554;13.364;2023-04-01T12:23:45;10.10;99.90
15564;DHT22;7883;52.554;13.364;2023-04-01T12:26:29;10.00;99.90
15564;DHT22;7883;52.554;13.364;2023-04-01T12:29:09;9.70;99.90
15564;DHT22;7883;52.554;13.364;2023-04-01T12:31:50;9.70;99.90
15564;DHT22;7883;52.554;13.364;2023-04-01T12:34:39;9.50;99.90
15564;DHT22;7883;52.554;13.364;2023-04-01T12:37:13;9.50;99.90
15564;DHT22;7883;52.554;13.364;2023-04-01T12:39:51;9.50;99.90
15564;DHT22;7883;52.554;13.364;2023-04-01T12:42:44;9.50;99.90
15564;DHT22;7883;52.554;13.364;2023-04-01T12:45:30;9.50;99.90
15564;DHT22;7883;52.554;13.364;2023-04-01T12:51:34;9.50;99.90
15564;DHT22;7883;52.554;13.364;2023-04-01T12:54:29;9.40;99.90
15564;DHT22;7883;52.554;13.364;2023-04-01T12:57:20;9.40;99.90
15564;DHT22;7883;52.554;13.364;2023-04-01T13:00:09;9.50;99.90
15564;DHT22;7883;52.554;13.364;2023-04-01T13:02:50;9.70;99.90
15564;DHT22;7883;52.554;13.364;2023-04-01T13:08:38;10.00;99.90
15564;DHT22;7883;52.554;13.364;2023-04-01T13:11:15;9.90;99.90
15564;DHT22;7883;52.554;13.364;2023-04-01T13:14:19;9.70;99.90
15564;DHT22;7883;52.554;13.364;2023-04-01T13:16:52;9.50;99.90
15564;DHT22;7883;52.554;13.364;2023-04-01T13:19:29;9.40;99.90
15564;DHT22;7883;52.554;13.364;2023-04-01T13:22:04;9.40;99.90
15564;DHT22;7883;52.554;13.364;2023-04-01T13:24:43;9.60;99.90
15564;DHT22;7883;52.554;13.364;2023-04-01T13:27:18;9.40;99.90
15564;DHT22;7883;52.554;13.364;2023-04-01T13:29:57;9.60;99.90
15564;DHT22;7883;52.554;13.364;2023-04-01T13:32:30;9.50;99.90
15564;DHT22;7883;52.554;13.364;2023-04-01T13:35:11;9.50;99.90
15564;DHT22;7883;52.554;13.364;2023-04-01T13:40:45;9.70;99.90
15564;DHT22;7883;52.554;13.364;2023-04-01T13:43:19;9.70;99.90
15564;DHT22;7883;52.554;13.364;2023-04-01T13:46:19;9.60;99.90
15564;DHT22;7883;52.554;13.364;2023-04-01T13:49:18;9.30;99.90
15564;DHT22;7883;52.554;13.364;2023-04-01T13:55:20;9.60;99.90
15564;DHT22;7883;52.554;13.364;2023-04-01T14:01:04;9.20;99.90
15564;DHT22;7883;52.554;13.364;2023-04-01T14:03:42;9.10;99.90
15564;DHT22;7883;52.554;13.364;2023-04-01T14:06:19;9.40;99.90
15564;DHT22;7883;52.554;13.364;2023-04-01T14:12:02;9.30;99.90
15564;DHT22;7883;52.554;13.364;2023-04-01T14:14:48;9.20;99.90
15564;DHT22;7883;52.554;13.364;2023-04-01T14:17:38;9.20;99.90
15564;DHT22;7883;52.554;13.364;2023-04-01T14:20:28;9.20;99.90
15564;DHT22;7883;52.554;13.364;2023-04-01T14:23:17;9.20;99.90
15564;DHT22;7883;52.554;13.364;2023-04-01T14:26:21;9.20;99.90
15564;DHT22;7883;52.554;13.364;2023-04-01T14:28:55;9.10;99.90
15564;DHT22;7883;52.554;13.364;2023-04-01T14:31:34;9.10;99.90
15564;DHT22;7883;52.554;13.364;2023-04-01T14:34:20;9.20;99.90
15564;DHT22;7883;52.554;13.364;2023-04-01T14:37:19;9.10;99.90
15564;DHT22;7883;52.554;13.364;2023-04-01T14:43:13;9.10;99.90
15564;DHT22;7883;52.554;13.364;2023-04-01T14:46:08;9.10;99.90
15564;DHT22;7883;52.554;13.364;2023-04-01T14:48:39;8.80;99.90
15564;DHT22;7883;52.554;13.364;2023-04-01T14:51:18;8.90;99.90
15564;DHT22;7883;52.554;13.364;2023-04-01T14:53:56;8.90;99.90
15564;DHT22;7883;52.554;13.364;2023-04-01T14:56:39;9.10;99.90
15564;DHT22;7883;52.554;13.364;2023-04-01T14:59:13;9.00;99.90
15564;DHT22;7883;52.554;13.364;2023-04-01T15:01:47;9.10;99.90
15564;DHT22;7883;52.554;13.364;2023-04-01T15:04:37;9.00;99.90
15564;DHT22;7883;52.554;13.364;2023-04-01T15:07:35;8.90;99.90
15564;DHT22;7883;52.554;13.364;2023-04-01T15:10:12;9.10;99.90
15564;DHT22;7883;52.554;13.364;2023-04-01T15:12:50;8.80;99.90
15564;DHT22;7883;52.554;13.364;2023-04-01T15:15:32;8.60;99.90
15564;DHT22;7883;52.554;13.364;2023-04-01T15:18:08;8.70;99.90
15564;DHT22;7883;52.554;13.364;2023-04-01T15:20:56;8.90;99.90
15564;DHT22;7883;52.554;13.364;2023-04-01T15:23:34;8.80;99.90
15564;DHT22;7883;52.554;13.364;2023-04-01T15:26:19;8.70;99.90
15564;DHT22;7883;52.554;13.364;2023-04-01T15:29:01;8.60;99.90
15564;DHT22;7883;52.554;13.364;2023-04-01T15:31:40;8.60;99.90
15564;DHT22;7883;52.554;13.364;2023-04-01T15:34:21;8.60;99.90
15564;DHT22;7883;52.554;13.364;2023-04-01T15:36:55;8.50;99.90
15564;DHT22;7883;52.554;13.364;2023-04-01T15:39:30;8.50;99.90
15564;DHT22;7883;52.554;13.364;2023-04-01T15:42:19;8.40;99.90
15564;DHT22;7883;52.554;13.364;2023-04-01T15:45:07;8.30;99.90
15564;DHT22;7883;52.554;13.364;2023-04-01T15:47:42;8.60;99.90
15564;DHT22;7883;52.554;13.364;2023-04-01T15:50:35;8.40;99.90
15564;DHT22;7883;52.554;13.364;2023-04-01T15:53:13;8.30;99.90
15564;DHT22;7883;52.554;13.364;2023-04-01T15:55:49;8.30;99.90
15564;DHT22;7883;52.554;13.364;2023-04-01T15:58:31;8.30;99.90
15564;DHT22;7883;52.554;13.364;2023-04-01T16:01:07;8.50;99.90
15564;DHT22;7883;52.554;13.364;2023-04-01T16:03:48;8.60;99.90
15564;DHT22;7883;52.554;13.364;2023-04-01T16:06:31;8.40;99.90
15564;DHT22;7883;52.554;13.364;2023-04-01T16:09:15;8.40;99.90
15564;DHT22;7883;52.554;13.364;2023-04-01T16:11:50;8.60;99.90
15564;DHT22;7883;52.554;13.364;2023-04-01T16:14:33;8.60;99.90
15564;DHT22;7883;52.554;13.364;2023-04-01T16:17:19;8.40;99.90
15564;DHT22;7883;52.554;13.364;2023-04-01T16:19:59;8.20;99.90
15564;DHT22;7883;52.554;13.364;2023-04-01T16:22:32;8.30;99.90
15564;DHT22;7883;52.554;13.364;2023-04-01T16:28:09;8.20;99.90
15564;DHT22;7883;52.554;13.364;2023-04-01T16:30:45;8.20;99.90
15564;DHT22;7883;52.554;13.364;2023-04-01T16:33:20;8.20;99.90
15564;DHT22;7883;52.554;13.364;2023-04-01T16:35:55;8.30;99.90
15564;DHT22;7883;52.554;13.364;2023-04-01T16:38:31;8.20;99.90
15564;DHT22;7883;52.554;13.364;2023-04-01T16:41:10;8.10;99.90
15564;DHT22;7883;52.554;13.364;2023-04-01T16:43:42;8.20;99.90
15564;DHT22;7883;52.554;13.364;2023-04-01T16:46:33;8.00;99.90
15564;DHT22;7883;52.554;13.364;2023-04-01T16:49:28;8.30;99.90
15564;DHT22;7883;52.554;13.364;2023-04-01T16:52:13;8.20;99.90
15564;DHT22;7883;52.554;13.364;2023-04-01T16:54:44;8.40;99.90
15564;DHT22;7883;52.554;13.364;2023-04-01T16:57:19;8.30;99.90
15564;DHT22;7883;52.554;13.364;2023-04-01T16:59:51;8.20;99.90
15564;DHT22;7883;52.554;13.364;2023-04-01T17:02:23;8.00;99.90
15564;DHT22;7883;52.554;13.364;2023-04-01T17:05:00;7.70;99.90
15564;DHT22;7883;52.554;13.364;2023-04-01T17:07:38;7.70;99.90
15564;DHT22;7883;52.554;13.364;2023-04-01T17:13:31;7.40;99.90
15564;DHT22;7883;52.554;13.364;2023-04-01T17:16:17;7.40;99.90
15564;DHT22;7883;52.554;13.364;2023-04-01T17:18:53;7.40;99.90
15564;DHT22;7883;52.554;13.364;2023-04-01T17:21:29;7.40;99.90
15564;DHT22;7883;52.554;13.364;2023-04-01T17:24:13;7.30;99.90
15564;DHT22;7883;52.554;13.364;2023-04-01T17:26:47;7.20;99.90
15564;DHT22;7883;52.554;13.364;2023-04-01T17:29:24;7.40;99.90
15564;DHT22;7883;52.554;13.364;2023-04-01T17:32:03;7.40;99.90
15564;DHT22;7883;52.554;13.364;2023-04-01T17:34:46;7.30;99.90
15564;DHT22;7883;52.554;13.364;2023-04-01T17:37:32;7.40;99.90
15564;DHT22;7883;52.554;13.364;2023-04-01T17:40:15;7.60;99.90
15564;DHT22;7883;52.554;13.364;2023-04-01T17:42:53;7.40;99.90
15564;DHT22;7883;52.554;13.364;2023-04-01T17:45:28;7.40;99.90
15564;DHT22;7883;52.554;13.364;2023-04-01T17:48:13;7.30;99.90
15564;DHT22;7883;52.554;13.364;2023-04-01T17:50:52;7.20;99.90
15564;DHT22;7883;52.554;13.364;2023-04-01T17:53:33;7.30;99.90
15564;DHT22;7883;52.554;13.364;2023-04-01T17:56:14;7.10;99.90
15564;DHT22;7883;52.554;13.364;2023-04-01T17:58:46;7.00;99.90
15564;DHT22;7883;52.554;13.364;2023-04-01T18:01:24;7.00;99.90
15564;DHT22;7883;52.554;13.364;2023-04-01T18:04:07;6.70;99.90
15564;DHT22;7883;52.554;13.364;2023-04-01T18:06:36;6.70;99.90
15564;DHT22;7883;52.554;13.364;2023-04-01T18:09:19;6.50;99.90
15564;DHT22;7883;52.554;13.364;2023-04-01T18:11:58;6.60;99.90
15564;DHT22;7883;52.554;13.364;2023-04-01T18:14:50;6.40;99.90
15564;DHT22;7883;52.554;13.364;2023-04-01T18:17:27;6.60;99.90
15564;DHT22;7883;52.554;13.364;2023-04-01T18:20:22;6.50;99.90
15564;DHT22;7883;52.554;13.364;2023-04-01T18:22:57;6.60;99.90
15564;DHT22;7883;52.554;13.364;2023-04-01T18:25:30;6.60;99.90
15564;DHT22;7883;52.554;13.364;2023-04-01T18:28:21;6.50;99.90
15564;DHT22;7883;52.554;13.364;2023-04-01T18:30:56;6.60;99.90